Time;durP1;ratioP1;P1;durP2;ratioP2;P2;SDS_P1;SDS_P2;PMS_P1;PMS_P2;Temp;Humidity;BMP_temperature;BMP_pressure;BME280_temperature;BME280_humidity;BME280_pressure;Samples;Min_cycle;Max_cycle;Signal;HPM_P1;HPM_P2
2022/06/28 00:01:33;;;;;;;;;;;;;;;21.20;53.45;102064.44;5021546;28;20265;-65
2022/06/28 00:03:58;;;;;;;;;;;;;;;21.09;53.96;102064.66;5016705;28;19932;-65
2022/06/28 00:06:24;;;;;;;;;;;;;;;21.14;53.70;102062.75;5021746;28;19928;-67
2022/06/28 00:08:49;;;;;;;;;;;;;;;21.06;54.21;102066.00;5017160;28;20441;-66
2022/06/28 00:11:14;;;;;;;;;;;;;;;20.86;54.77;102063.94;5017644;28;19937;-66
2022/06/28 00:13:40;;;;;;;;;;;;;;;21.11;54.14;102059.75;5020027;28;19925;-66
2022/06/28 00:16:05;;;;;;;;;;;;;;;21.06;54.29;102067.91;5011183;28;19925;-66
2022/06/28 00:18:31;;;;;;;;;;;;;;;20.90;54.74;102064.22;5023615;28;19918;-65
2022/06/28 00:20:56;;;;;;;;;;;;;;;20.85;55.11;102070.47;5010657;28;19929;-65
2022/06/28 00:23:22;;;;;;;;;;;;;;;20.75;54.97;102064.97;5019467;28;20351;-66
2022/06/28 00:25:47;;;;;;;;;;;;;;;20.69;55.71;102073.38;5019232;28;19925;-65
2022/06/28 00:28:12;;;;;;;;;;;;;;;20.71;54.72;102071.22;5010321;28;19921;-64
2022/06/28 00:30:37;;;;;;;;;;;;;;;20.52;55.87;102070.78;5016548;28;19923;-66
2022/06/28 00:33:03;;;;;;;;;;;;;;;20.84;54.68;102071.56;5018349;28;19952;-67
2022/06/28 00:35:28;;;;;;;;;;;;;;;20.56;55.70;102066.44;5016926;28;19926;-65
2022/06/28 00:37:53;;;;;;;;;;;;;;;20.72;55.41;102070.94;5019919;28;20269;-67
2022/06/28 00:40:18;;;;;;;;;;;;;;;20.71;55.17;102071.22;5009069;28;19925;-66
2022/06/28 00:42:44;;;;;;;;;;;;;;;20.62;55.55;102072.75;5015245;28;19917;-66
2022/06/28 00:45:09;;;;;;;;;;;;;;;20.69;54.57;102076.94;5015044;28;20074;-64
2022/06/28 00:47:35;;;;;;;;;;;;;;;20.70;54.89;102075.00;5021302;28;20008;-66
2022/06/28 00:50:02;;;;;;;;;;;;;;;20.64;54.65;102079.63;5016509;28;19921;-67
2022/06/28 00:52:27;;;;;;;;;;;;;;;20.63;54.45;102077.16;5013175;28;19929;-65
2022/06/28 00:54:52;;;;;;;;;;;;;;;20.56;54.36;102080.09;5016840;28;20278;-65
2022/06/28 00:57:17;;;;;;;;;;;;;;;20.54;54.39;102076.00;5015797;28;19925;-65
2022/06/28 00:59:43;;;;;;;;;;;;;;;20.48;54.55;102080.59;5020594;28;20444;-64
2022/06/28 01:02:08;;;;;;;;;;;;;;;20.67;53.61;102081.84;5011383;28;20424;-65
2022/06/28 01:04:35;;;;;;;;;;;;;;;20.62;53.77;102083.69;5011934;28;20394;-64
2022/06/28 01:07:01;;;;;;;;;;;;;;;20.33;54.59;102080.47;5013778;28;20160;-68
2022/06/28 01:09:26;;;;;;;;;;;;;;;20.30;54.65;102081.00;5015291;28;19957;-66
2022/06/28 01:11:52;;;;;;;;;;;;;;;20.17;54.71;102079.47;5014643;28;20434;-66
2022/06/28 01:14:17;;;;;;;;;;;;;;;20.56;53.42;102090.22;5014539;28;19921;-65
2022/06/28 01:16:42;;;;;;;;;;;;;;;20.79;52.84;102092.59;5018793;28;19921;-66
2022/06/28 01:19:08;;;;;;;;;;;;;;;20.80;52.42;102086.00;5016739;28;19925;-65
2022/06/28 01:21:34;;;;;;;;;;;;;;;20.47;53.43;102087.13;5020780;28;20016;-65
2022/06/28 01:24:02;;;;;;;;;;;;;;;20.40;53.70;102091.19;5017558;28;19921;-67
2022/06/28 01:26:27;;;;;;;;;;;;;;;20.23;53.68;102095.91;5015287;28;19932;-64
2022/06/28 01:28:52;;;;;;;;;;;;;;;20.23;53.88;102088.56;5015970;28;19921;-66
2022/06/28 01:31:18;;;;;;;;;;;;;;;20.15;54.25;102089.00;5021995;28;19987;-67
2022/06/28 01:33:44;;;;;;;;;;;;;;;20.23;54.50;102090.47;5011428;28;19925;-67
2022/06/28 01:36:10;;;;;;;;;;;;;;;20.27;53.53;102100.59;5014802;28;20416;-64
2022/06/28 01:38:36;;;;;;;;;;;;;;;20.39;53.21;102097.72;5017570;28;20245;-65
2022/06/28 01:41:02;;;;;;;;;;;;;;;20.23;54.26;102094.00;5019346;28;19925;-65
2022/06/28 01:43:27;;;;;;;;;;;;;;;20.14;54.11;102106.47;5018404;28;19932;-67
2022/06/28 01:45:53;;;;;;;;;;;;;;;20.30;53.77;102099.28;5015309;28;19933;-66
2022/06/28 01:48:19;;;;;;;;;;;;;;;20.27;53.62;102107.97;5016056;28;19928;-65
2022/06/28 01:50:45;;;;;;;;;;;;;;;20.16;54.04;102101.56;5013916;28;19921;-64
2022/06/28 01:53:11;;;;;;;;;;;;;;;20.19;54.32;102113.88;5019884;28;20389;-65
2022/06/28 01:55:36;;;;;;;;;;;;;;;20.27;54.14;102118.88;5019530;28;19925;-66
2022/06/28 01:58:01;;;;;;;;;;;;;;;20.31;53.62;102112.66;5015617;28;19930;-65
2022/06/28 02:00:27;;;;;;;;;;;;;;;20.41;54.03;102114.66;5017690;28;20344;-67
2022/06/28 02:02:52;;;;;;;;;;;;;;;20.43;53.76;102116.06;5014178;28;19932;-66
2022/06/28 02:05:17;;;;;;;;;;;;;;;20.48;53.60;102116.09;5014024;28;20218;-64
2022/06/28 02:07:47;;;;;;;;;;;;;;;20.31;53.95;102109.94;5013573;28;19917;-66
2022/06/28 02:10:12;;;;;;;;;;;;;;;20.27;53.95;102108.78;5014322;28;19922;-65
2022/06/28 02:12:37;;;;;;;;;;;;;;;20.47;53.38;102110.88;5014123;28;20317;-67
2022/06/28 02:15:03;;;;;;;;;;;;;;;20.45;53.21;102113.88;5025650;28;19909;-64
2022/06/28 02:17:28;;;;;;;;;;;;;;;20.69;52.48;102114.38;5020141;28;19921;-65
2022/06/28 02:19:54;;;;;;;;;;;;;;;20.71;51.83;102128.59;5015810;28;19925;-64
2022/06/28 02:22:19;;;;;;;;;;;;;;;20.62;52.35;102130.13;5016751;28;20381;-65
2022/06/28 02:24:44;;;;;;;;;;;;;;;20.49;52.60;102125.09;5017973;28;20381;-66
2022/06/28 02:27:10;;;;;;;;;;;;;;;20.65;52.16;102126.88;5014621;28;20262;-66
2022/06/28 02:29:35;;;;;;;;;;;;;;;20.69;51.81;102131.59;5013312;28;20375;-64
2022/06/28 02:32:01;;;;;;;;;;;;;;;20.63;51.84;102134.53;5016530;28;20385;-66
2022/06/28 02:42:37;;;;;;;;;;;;;;;20.43;52.36;102139.78;5015735;28;19964;-65
2022/06/28 02:45:02;;;;;;;;;;;;;;;20.47;52.09;102136.31;5021864;28;19917;-65
2022/06/28 02:47:28;;;;;;;;;;;;;;;20.49;52.17;102139.59;5015424;28;20015;-65
2022/06/28 02:49:53;;;;;;;;;;;;;;;20.37;52.40;102129.91;5020068;28;19929;-67
2022/06/28 02:52:18;;;;;;;;;;;;;;;20.42;52.28;102143.63;5012551;28;19921;-65
2022/06/28 02:54:43;;;;;;;;;;;;;;;20.38;52.06;102137.03;5022494;28;20391;-65
2022/06/28 02:57:09;;;;;;;;;;;;;;;20.50;51.81;102143.16;5025947;28;20428;-65
2022/06/28 02:59:34;;;;;;;;;;;;;;;20.34;52.05;102150.38;5016543;28;19929;-65
2022/06/28 03:01:59;;;;;;;;;;;;;;;20.40;52.06;102148.53;5023419;28;20015;-65
2022/06/28 03:04:24;;;;;;;;;;;;;;;20.54;51.67;102156.00;5022161;28;19936;-65
2022/06/28 03:06:50;;;;;;;;;;;;;;;20.51;51.92;102156.53;5018490;28;19951;-66
2022/06/28 03:09:15;;;;;;;;;;;;;;;20.51;52.04;102155.72;5017923;28;20012;-65
2022/06/28 03:11:40;;;;;;;;;;;;;;;20.50;52.30;102156.81;5016794;28;19933;-65
2022/06/28 03:14:05;;;;;;;;;;;;;;;20.46;51.99;102150.22;5017105;28;19921;-66
2022/06/28 03:16:30;;;;;;;;;;;;;;;20.36;52.26;102156.41;5017748;28;19925;-66
2022/06/28 03:18:56;;;;;;;;;;;;;;;20.40;52.23;102156.72;5021603;28;19927;-65
2022/06/28 03:21:21;;;;;;;;;;;;;;;20.27;52.59;102162.56;5022943;28;19975;-66
2022/06/28 03:23:46;;;;;;;;;;;;;;;20.37;52.08;102168.13;5007185;28;19929;-66
2022/06/28 03:26:11;;;;;;;;;;;;;;;20.23;52.74;102156.81;5017951;28;19921;-66
2022/06/28 03:28:36;;;;;;;;;;;;;;;20.17;52.47;102161.34;5018650;28;19925;-67
2022/06/28 03:31:02;;;;;;;;;;;;;;;20.29;52.67;102174.88;5018846;28;20038;-65
2022/06/28 03:33:27;;;;;;;;;;;;;;;20.27;52.40;102173.50;5015833;28;19921;-65
2022/06/28 03:35:52;;;;;;;;;;;;;;;20.40;52.66;102170.38;5013967;28;21277;-66
2022/06/28 03:38:17;;;;;;;;;;;;;;;20.13;53.59;102173.88;5016140;28;19921;-66
2022/06/28 03:40:43;;;;;;;;;;;;;;;20.26;52.99;102175.41;5010963;28;20008;-65
2022/06/28 03:43:08;;;;;;;;;;;;;;;20.31;52.58;102172.72;5015431;28;20029;-65
2022/06/28 03:45:33;;;;;;;;;;;;;;;20.33;52.69;102176.03;5016444;28;19924;-65
2022/06/28 03:47:58;;;;;;;;;;;;;;;20.25;52.93;102170.19;5021517;28;20024;-65
2022/06/28 03:50:24;;;;;;;;;;;;;;;20.19;52.94;102176.66;5017469;28;19922;-66
2022/06/28 03:52:49;;;;;;;;;;;;;;;20.32;52.55;102179.03;5015864;28;19968;-66
2022/06/28 03:55:14;;;;;;;;;;;;;;;20.19;53.17;102184.84;5014981;28;19932;-66
2022/06/28 03:57:40;;;;;;;;;;;;;;;20.17;53.54;102182.38;5013454;28;19996;-67
2022/06/28 04:00:05;;;;;;;;;;;;;;;20.17;52.92;102182.38;5014408;28;19914;-65
2022/06/28 04:02:30;;;;;;;;;;;;;;;20.15;53.04;102182.63;5023187;28;19932;-66
2022/06/28 04:04:56;;;;;;;;;;;;;;;20.31;52.63;102185.53;5024841;28;19932;-65
2022/06/28 04:07:21;;;;;;;;;;;;;;;20.24;52.69;102176.75;5023109;28;19921;-65
2022/06/28 04:09:46;;;;;;;;;;;;;;;20.28;53.04;102181.44;5028034;28;19968;-66
2022/06/28 04:12:12;;;;;;;;;;;;;;;19.98;54.07;102186.50;5023359;28;19913;-65
2022/06/28 04:14:37;;;;;;;;;;;;;;;19.97;54.17;102193.88;5010764;28;19928;-66
2022/06/28 04:17:02;;;;;;;;;;;;;;;20.26;53.11;102189.06;5016904;28;19975;-66
2022/06/28 04:19:27;;;;;;;;;;;;;;;20.17;53.78;102189.75;5023693;28;19926;-65
2022/06/28 04:21:53;;;;;;;;;;;;;;;20.36;53.26;102196.53;5018295;28;19925;-65
2022/06/28 04:24:18;;;;;;;;;;;;;;;20.47;52.95;102199.13;5015775;28;19979;-66
2022/06/28 04:26:43;;;;;;;;;;;;;;;20.23;53.95;102194.19;5021147;28;19928;-65
2022/06/28 04:29:08;;;;;;;;;;;;;;;20.44;53.05;102201.53;5015453;28;20512;-66
2022/06/28 04:31:34;;;;;;;;;;;;;;;20.43;53.38;102195.25;5017378;28;19921;-66
2022/06/28 04:33:59;;;;;;;;;;;;;;;20.45;53.42;102194.97;5015825;28;19927;-66
2022/06/28 04:36:26;;;;;;;;;;;;;;;20.47;53.21;102190.09;5010156;28;19999;-66
2022/06/28 04:38:51;;;;;;;;;;;;;;;20.42;53.43;102201.78;5015759;28;19921;-66
2022/06/28 04:41:17;;;;;;;;;;;;;;;20.46;53.56;102193.91;5015580;28;19960;-65
2022/06/28 04:43:42;;;;;;;;;;;;;;;20.22;54.45;102198.00;5016197;28;19931;-68
2022/06/28 04:46:08;;;;;;;;;;;;;;;20.47;53.71;102187.34;5016659;28;19955;-66
2022/06/28 04:48:33;;;;;;;;;;;;;;;20.51;53.79;102185.75;5030605;28;19917;-66
2022/06/28 04:51:10;;;;;;;;;;;;;;;20.68;53.18;102190.03;5017189;28;19922;-65
2022/06/28 04:53:36;;;;;;;;;;;;;;;20.55;53.48;102189.63;5016541;28;19921;-67
2022/06/28 04:56:01;;;;;;;;;;;;;;;20.67;53.22;102198.47;5016616;28;19922;-65
2022/06/28 04:58:27;;;;;;;;;;;;;;;20.78;52.92;102194.75;5015693;28;19928;-65
2022/06/28 05:00:52;;;;;;;;;;;;;;;20.73;53.09;102192.81;5016725;28;19929;-64
2022/06/28 05:03:17;;;;;;;;;;;;;;;20.60;53.69;102197.88;5016557;28;19925;-65
2022/06/28 05:05:42;;;;;;;;;;;;;;;20.80;52.86;102195.31;5016173;28;19921;-65
2022/06/28 05:08:08;;;;;;;;;;;;;;;20.72;53.02;102193.88;5015293;28;20301;-66
2022/06/28 05:10:33;;;;;;;;;;;;;;;20.80;53.24;102192.59;5015171;28;19975;-65
2022/06/28 05:12:58;;;;;;;;;;;;;;;20.59;54.08;102201.69;5016752;28;19925;-67
2022/06/28 05:15:23;;;;;;;;;;;;;;;20.91;52.90;102194.34;5022524;28;19924;-65
2022/06/28 05:17:49;;;;;;;;;;;;;;;20.92;53.13;102202.25;5019585;28;19926;-67
2022/06/28 05:20:14;;;;;;;;;;;;;;;21.11;52.73;102207.38;5016602;28;19983;-67
2022/06/28 05:22:39;;;;;;;;;;;;;;;20.84;53.79;102191.81;5021737;28;19933;-67
2022/06/28 05:25:04;;;;;;;;;;;;;;;20.88;53.50;102192.94;5019087;28;19925;-67
2022/06/28 05:27:30;;;;;;;;;;;;;;;20.95;53.60;102195.47;5015854;28;19917;-66
2022/06/28 05:29:55;;;;;;;;;;;;;;;21.12;53.20;102201.63;5021236;28;19921;-66
2022/06/28 05:32:20;;;;;;;;;;;;;;;21.19;53.43;102201.41;5024306;28;20409;-66
2022/06/28 05:34:46;;;;;;;;;;;;;;;21.22;53.00;102192.69;5018721;28;19932;-66
2022/06/28 05:37:11;;;;;;;;;;;;;;;21.34;53.25;102199.59;5016149;28;20604;-68
2022/06/28 05:39:37;;;;;;;;;;;;;;;21.45;53.12;102200.47;5018728;28;20004;-66
2022/06/28 05:42:02;;;;;;;;;;;;;;;21.58;52.56;102203.56;5019151;28;19940;-68
2022/06/28 05:44:27;;;;;;;;;;;;;;;21.73;52.46;102192.72;5010055;28;19932;-66
2022/06/28 05:46:52;;;;;;;;;;;;;;;21.61;52.89;102196.75;5026676;28;20305;-64
2022/06/28 05:49:18;;;;;;;;;;;;;;;21.74;52.81;102199.00;5014910;28;20008;-66
2022/06/28 05:51:43;;;;;;;;;;;;;;;21.74;52.67;102202.56;5015969;28;20400;-65
2022/06/28 05:54:09;;;;;;;;;;;;;;;21.66;53.22;102203.06;5017423;28;19921;-64
2022/06/28 05:56:35;;;;;;;;;;;;;;;21.61;53.52;102207.69;5019674;28;19943;-64
2022/06/28 05:59:01;;;;;;;;;;;;;;;21.69;53.07;102201.72;5018389;28;20385;-64
2022/06/28 06:01:26;;;;;;;;;;;;;;;21.86;52.72;102202.38;5012185;28;19967;-65
2022/06/28 06:03:52;;;;;;;;;;;;;;;21.90;52.73;102194.44;5025799;28;19977;-65
2022/06/28 06:06:17;;;;;;;;;;;;;;;21.90;52.91;102199.91;5021054;28;19991;-64
2022/06/28 06:08:43;;;;;;;;;;;;;;;22.24;51.73;102201.16;5016552;28;20480;-65
2022/06/28 06:11:08;;;;;;;;;;;;;;;22.08;52.60;102200.28;5022836;28;19926;-65
2022/06/28 06:13:34;;;;;;;;;;;;;;;22.22;51.43;102203.31;5030590;28;19947;-66
2022/06/28 06:15:59;;;;;;;;;;;;;;;22.47;51.33;102201.47;5032520;28;19928;-66
2022/06/28 06:18:24;;;;;;;;;;;;;;;22.37;50.86;102211.56;5034491;28;19940;-66
2022/06/28 06:20:50;;;;;;;;;;;;;;;22.19;51.64;102210.16;5033948;28;19932;-65
2022/06/28 06:23:15;;;;;;;;;;;;;;;22.52;50.56;102209.72;5029080;28;19933;-65
2022/06/28 06:25:40;;;;;;;;;;;;;;;22.60;50.32;102214.66;5032663;28;19925;-65
2022/06/28 06:28:05;;;;;;;;;;;;;;;22.26;51.31;102212.66;5034068;28;19921;-65
2022/06/28 06:30:31;;;;;;;;;;;;;;;22.33;51.50;102214.03;5037808;28;20135;-65
2022/06/28 06:32:56;;;;;;;;;;;;;;;21.42;53.65;102214.69;5035090;28;20015;-65
2022/06/28 06:35:21;;;;;;;;;;;;;;;22.07;52.08;102219.72;5031237;28;19928;-66
2022/06/28 06:37:46;;;;;;;;;;;;;;;22.00;52.18;102216.38;5033492;28;19936;-64
2022/06/28 06:40:12;;;;;;;;;;;;;;;22.64;50.30;102213.03;5031592;28;19921;-64
2022/06/28 06:42:37;;;;;;;;;;;;;;;21.96;52.19;102216.09;5034015;28;21286;-66
2022/06/28 06:45:03;;;;;;;;;;;;;;;22.67;50.15;102214.41;5030313;28;19929;-65
2022/06/28 06:47:28;;;;;;;;;;;;;;;22.85;49.44;102219.38;5035861;28;19960;-64
2022/06/28 06:49:53;;;;;;;;;;;;;;;22.34;51.19;102217.59;5033660;28;19951;-66
2022/06/28 06:52:19;;;;;;;;;;;;;;;22.41;51.28;102219.00;5036199;28;19928;-64
2022/06/28 06:54:44;;;;;;;;;;;;;;;22.74;50.78;102223.22;5029649;28;20289;-63
2022/06/28 06:57:09;;;;;;;;;;;;;;;22.82;50.12;102217.16;5030156;28;19924;-64
2022/06/28 06:59:34;;;;;;;;;;;;;;;22.73;49.73;102223.47;5033267;28;19921;-63
2022/06/28 07:02:00;;;;;;;;;;;;;;;23.30;48.49;102226.75;5036246;28;19921;-67
2022/06/28 07:04:25;;;;;;;;;;;;;;;23.12;49.35;102225.41;5030364;28;20025;-63
2022/06/28 07:06:50;;;;;;;;;;;;;;;23.33;48.23;102232.53;5031352;28;19920;-65
2022/06/28 07:09:15;;;;;;;;;;;;;;;23.30;48.67;102232.25;5030405;28;19921;-65
2022/06/28 07:11:41;;;;;;;;;;;;;;;23.60;48.27;102231.41;5030136;28;19925;-65
2022/06/28 07:14:06;;;;;;;;;;;;;;;22.86;50.46;102236.66;5034703;28;19924;-64
2022/06/28 07:16:32;;;;;;;;;;;;;;;23.37;49.25;102235.56;5036302;28;19935;-65
2022/06/28 07:18:58;;;;;;;;;;;;;;;23.09;49.66;102242.41;5037507;28;20003;-64
2022/06/28 07:21:23;;;;;;;;;;;;;;;22.84;49.54;102239.63;5032806;28;20351;-63
2022/06/28 07:23:48;;;;;;;;;;;;;;;23.08;49.69;102239.94;5032878;28;19983;-63
2022/06/28 07:26:13;;;;;;;;;;;;;;;23.05;49.52;102237.75;5033030;28;19928;-66
2022/06/28 07:28:39;;;;;;;;;;;;;;;23.47;48.15;102249.25;5033073;28;19921;-65
2022/06/28 07:31:04;;;;;;;;;;;;;;;23.80;47.77;102240.41;5016783;28;19965;-63
2022/06/28 07:33:30;;;;;;;;;;;;;;;23.41;47.73;102239.38;5026822;28;19928;-65
2022/06/28 07:35:55;;;;;;;;;;;;;;;23.35;47.18;102244.06;5018860;28;19964;-65
2022/06/28 07:38:20;;;;;;;;;;;;;;;23.81;46.08;102238.47;5021109;28;20009;-63
2022/06/28 07:40:46;;;;;;;;;;;;;;;24.53;45.09;102243.41;5021804;28;19952;-64
2022/06/28 07:43:11;;;;;;;;;;;;;;;24.92;43.87;102238.75;5031800;28;19925;-64
2022/06/28 07:45:36;;;;;;;;;;;;;;;25.17;43.05;102233.88;5034714;28;20012;-64
2022/06/28 07:48:02;;;;;;;;;;;;;;;24.68;43.90;102235.88;5030180;28;20412;-64
2022/06/28 07:53:11;;;;;;;;;;;;;;;23.47;44.50;102228.13;5032997;28;19928;-65
2022/06/28 07:55:37;;;;;;;;;;;;;;;23.79;44.38;102225.03;5023429;28;20004;-65
2022/06/28 07:58:02;;;;;;;;;;;;;;;24.12;44.19;102229.03;5027829;28;20003;-63
2022/06/28 08:00:27;;;;;;;;;;;;;;;24.66;42.80;102232.59;5035175;28;19958;-66
2022/06/28 08:02:53;;;;;;;;;;;;;;;24.81;42.60;102234.41;5034038;28;20319;-65
2022/06/28 08:05:18;;;;;;;;;;;;;;;24.94;41.46;102233.78;5021477;28;20016;-64
2022/06/28 08:07:44;;;;;;;;;;;;;;;25.36;41.57;102233.13;5028299;28;20016;-63
2022/06/28 08:10:09;;;;;;;;;;;;;;;25.70;40.36;102231.97;5032193;28;20505;-65
2022/06/28 08:12:35;;;;;;;;;;;;;;;25.27;39.03;102221.94;5033872;28;19913;-66
2022/06/28 08:15:02;;;;;;;;;;;;;;;25.62;38.75;102235.38;5033678;28;19917;-65
2022/06/28 08:17:27;;;;;;;;;;;;;;;25.67;39.45;102238.06;5032173;28;20065;-64
2022/06/28 08:19:53;;;;;;;;;;;;;;;25.40;39.04;102229.53;5031170;28;20020;-64
2022/06/28 08:22:18;;;;;;;;;;;;;;;25.01;39.49;102240.59;5024393;28;19975;-64
2022/06/28 08:24:43;;;;;;;;;;;;;;;24.88;39.41;102227.53;5016787;28;19922;-66
2022/06/28 08:27:09;;;;;;;;;;;;;;;24.55;39.94;102227.44;5021713;28;20013;-65
2022/06/28 08:29:34;;;;;;;;;;;;;;;24.36;40.58;102222.59;5014981;28;20282;-66
2022/06/28 08:32:00;;;;;;;;;;;;;;;24.66;40.12;102232.59;5015778;28;19921;-66
2022/06/28 08:34:25;;;;;;;;;;;;;;;25.23;39.62;102215.38;5017462;28;20012;-65
2022/06/28 08:36:50;;;;;;;;;;;;;;;25.15;39.67;102227.84;5018954;28;19917;-65
2022/06/28 08:39:16;;;;;;;;;;;;;;;24.76;40.04;102227.06;5016297;28;20485;-66
2022/06/28 08:41:42;;;;;;;;;;;;;;;24.31;40.84;102219.88;5026890;28;19925;-65
2022/06/28 08:44:09;;;;;;;;;;;;;;;24.11;41.71;102224.66;5029872;28;19931;-65
2022/06/28 08:46:34;;;;;;;;;;;;;;;24.47;41.40;102219.81;5031907;28;19944;-66
2022/06/28 08:49:03;;;;;;;;;;;;;;;24.25;41.84;102204.50;5024357;28;20037;-67
2022/06/28 08:51:31;;;;;;;;;;;;;;;25.16;39.12;102203.88;5017521;28;19956;-64
2022/06/28 08:53:59;;;;;;;;;;;;;;;25.58;38.62;102209.53;5020979;28;20060;-65
2022/06/28 08:56:24;;;;;;;;;;;;;;;25.44;38.63;102208.56;5028629;28;20234;-65
2022/06/28 08:58:50;;;;;;;;;;;;;;;25.21;38.15;102214.84;5029977;28;20304;-66
2022/06/28 09:01:15;;;;;;;;;;;;;;;25.36;36.48;102208.34;5013465;28;20053;-66
2022/06/28 09:03:41;;;;;;;;;;;;;;;25.49;36.63;102214.03;5031108;28;19979;-65
2022/06/28 09:06:06;;;;;;;;;;;;;;;24.41;37.40;102206.06;5033046;28;20192;-65
2022/06/28 09:08:32;;;;;;;;;;;;;;;24.98;36.87;102204.59;5031549;28;20480;-66
2022/06/28 09:10:57;;;;;;;;;;;;;;;25.82;36.15;102196.59;5034069;28;19947;-65
2022/06/28 09:13:23;;;;;;;;;;;;;;;26.06;35.51;102200.13;5031011;28;19948;-66
2022/06/28 09:15:48;;;;;;;;;;;;;;;25.44;36.43;102199.50;5036305;28;19990;-65
2022/06/28 09:18:13;;;;;;;;;;;;;;;25.60;36.20;102198.22;5031133;28;19949;-65
2022/06/28 09:20:39;;;;;;;;;;;;;;;25.24;36.27;102195.81;5031444;28;19983;-67
2022/06/28 09:23:19;;;;;;;;;;;;;;;25.19;36.89;102195.03;5032777;28;19925;-65
2022/06/28 09:25:44;;;;;;;;;;;;;;;25.11;37.24;102188.25;5028716;28;20020;-66
2022/06/28 09:28:10;;;;;;;;;;;;;;;25.03;35.98;102185.28;5029741;28;20011;-65
2022/06/28 11:11:08;;;;;;;3.97;1.00;;;;;;;27.26;28.87;102116.53;5061190;27;21213;-72
2022/06/28 11:13:34;;;;;;;4.40;0.63;;;;;;;27.88;28.20;102109.47;5047088;28;20137;-71
2022/06/28 11:15:59;;;;;;;3.13;1.10;;;;;;;29.28;27.87;102110.69;5045824;28;20033;-70
2022/06/28 11:18:25;;;;;;;3.45;0.60;;;;;;;28.89;26.10;102109.81;5047156;28;20048;-73
2022/06/28 11:20:53;;;;;;;7.38;0.52;;;;;;;29.22;25.37;102111.97;5045660;28;20037;-71
2022/06/28 11:23:27;;;;;;;3.58;0.98;;;;;;;28.66;25.94;102103.50;5047413;28;20034;-74
2022/06/28 11:29:01;;;;;;;2.30;0.43;;;;;;;28.92;26.41;102104.47;5046764;28;20541;-72
2022/06/28 11:31:39;;;;;;;3.95;0.77;;;;;;;29.52;26.32;102105.53;5046737;28;20127;-72
2022/06/28 11:34:06;;;;;;;3.47;0.73;;;;;;;29.47;26.86;102105.69;5046327;28;20068;-73
2022/06/28 11:36:32;;;;;;;3.15;0.32;;;;;;;28.22;27.33;102101.53;5048393;28;20116;-74
2022/06/28 11:39:15;;;;;;;6.03;0.90;;;;;;;29.13;26.02;102107.50;5048051;28;20052;-71
2022/06/28 11:41:47;;;;;;;6.32;0.73;;;;;;;29.13;25.97;102099.19;5047463;28;20037;-73
2022/06/28 11:44:13;;;;;;;3.58;0.60;;;;;;;28.66;26.29;102099.94;5048242;28;20037;-75
2022/06/28 11:46:39;;;;;;;3.10;0.90;;;;;;;27.75;26.91;102091.00;5048288;28;20037;-75
2022/06/28 11:49:05;;;;;;;5.65;1.15;;;;;;;28.68;26.48;102095.69;5046196;28;20069;-67
2022/06/28 11:51:31;;;;;;;8.68;0.90;;;;;;;28.43;26.42;102093.53;5043622;28;20076;-69
2022/06/28 11:54:06;;;;;;;2.17;0.68;;;;;;;28.38;27.17;102100.00;5042094;28;20417;-70
2022/06/28 11:57:12;;;;;;;2.28;0.65;;;;;;;29.32;26.11;102092.31;5043473;28;20026;-69
2022/06/28 11:59:52;;;;;;;2.55;0.50;;;;;;;28.60;25.34;102085.38;4979271;28;20289;-71
2022/06/28 12:02:36;;;;;;;;;;;;;;;29.23;24.91;102085.06;4981578;28;20107;-71
2022/06/28 12:05:03;;;;;;;4.60;0.80;;;;;;;28.67;25.82;102087.72;4980195;28;19917;-70
2022/06/28 12:07:33;;;;;;;17.73;1.25;;;;;;;27.68;27.61;102090.59;4971403;28;20550;-70
2022/06/28 12:09:58;;;;;;;4.75;1.10;;;;;;;27.99;26.81;102090.75;4959175;28;20331;-69
2022/06/28 12:12:23;;;;;;;1.88;0.55;;;;;;;28.71;26.20;102084.00;5000350;28;20037;-70
2022/06/28 12:14:55;;;;;;;4.60;0.55;;;;;;;29.65;25.84;102095.47;4998754;28;20491;-69
2022/06/28 12:17:21;;;;;;;6.15;0.60;;;;;;;29.61;24.89;102094.50;5000396;28;20112;-70
2022/06/28 12:19:46;;;;;;;4.18;0.70;;;;;;;29.50;24.73;102090.41;4999619;28;20137;-69
2022/06/28 12:22:16;;;;;;;3.10;0.60;;;;;;;28.87;25.68;102087.19;4988439;28;20046;-72
2022/06/28 12:24:55;;;;;;;7.63;1.05;;;;;;;28.44;27.26;102082.16;4989143;28;20037;-70
2022/06/28 12:27:27;;;;;;;5.80;1.00;;;;;;;28.16;27.05;102088.97;4988357;28;20109;-70
2022/06/28 12:29:54;;;;;;;5.35;1.10;;;;;;;29.05;25.40;102095.25;4986993;28;20041;-69
2022/06/28 12:32:19;;;;;;;2.58;0.57;;;;;;;29.02;25.25;102092.28;4987395;28;20042;-70
2022/06/28 12:34:45;;;;;;;2.38;0.85;;;;;;;29.55;24.71;102081.09;4988491;28;20093;-69
2022/06/28 12:37:12;;;;;;;6.05;0.60;;;;;;;29.77;24.78;102083.78;5021710;28;20528;-71
2022/06/28 12:39:38;;;;;;;6.10;1.08;;;;;;;29.71;24.14;102085.06;5026532;28;20026;-68
2022/06/28 12:42:05;;;;;;;2.88;0.70;;;;;;;29.29;25.60;102083.78;5030317;28;20103;-70
2022/06/28 12:44:31;;;;;;;4.00;0.90;;;;;;;30.16;26.14;102087.25;5029664;28;20504;-69
2022/06/28 12:46:57;;;;;;;5.05;0.80;;;;;;;30.89;25.61;102091.75;5029312;28;20042;-70
2022/06/28 12:49:23;;;;;;;2.97;0.68;;;;;;;30.90;24.53;102092.56;5029721;28;20026;-72
2022/06/28 12:51:49;;;;;;;7.60;1.05;;;;;;;29.87;26.57;102084.31;5027322;28;20513;-71
2022/06/28 12:54:15;;;;;;;5.13;1.38;;;;;;;28.95;27.71;102089.19;5020553;28;20037;-69
2022/06/28 12:56:41;;;;;;;2.17;0.70;;;;;;;27.74;29.22;102081.88;5028113;28;20033;-70
2022/06/28 12:59:07;;;;;;;3.03;0.90;;;;;;;27.40;29.07;102078.75;5028910;28;20041;-70
2022/06/28 13:01:32;;;;;;;3.22;0.90;;;;;;;27.68;28.75;102079.53;5015821;28;20036;-71
2022/06/28 13:03:58;;;;;;;4.50;0.57;;;;;;;28.38;28.77;102083.41;5029527;28;20044;-69
2022/06/28 13:06:23;;;;;;;2.28;0.90;;;;;;;29.16;27.35;102073.66;5029134;28;20409;-71
2022/06/28 13:08:49;;;;;;;5.15;1.27;;;;;;;29.06;27.68;102073.91;5021566;28;20034;-72
2022/06/28 13:11:14;;;;;;;5.13;0.85;;;;;;;28.93;27.75;102074.84;5023924;28;20042;-70
2022/06/28 13:13:40;;;;;;;5.30;0.80;;;;;;;29.09;28.08;102065.78;5030808;28;20106;-72
2022/06/28 13:16:06;;;;;;;8.02;0.80;;;;;;;28.82;26.39;102066.00;5030937;28;20079;-69
2022/06/28 13:18:32;;;;;;;4.60;0.60;;;;;;;29.46;26.30;102059.72;5029246;28;20045;-70
2022/06/28 13:20:57;;;;;;;3.83;0.70;;;;;;;29.23;26.72;102063.75;5025582;28;20183;-71
2022/06/28 13:23:24;;;;;;;2.75;0.90;;;;;;;28.96;27.50;102068.66;5030311;28;20034;-73
2022/06/28 13:25:50;;;;;;;6.45;0.77;;;;;;;29.86;26.80;102062.44;5021133;28;20029;-70
2022/06/28 13:28:15;;;;;;;3.30;0.90;;;;;;;29.23;26.64;102060.16;5030379;28;20488;-72
2022/06/28 13:30:43;;;;;;;3.47;0.50;;;;;;;28.90;27.16;102059.69;5029373;28;20028;-71
2022/06/28 13:33:10;;;;;;;4.97;0.77;;;;;;;29.56;26.17;102044.78;5027795;28;20116;-69
2022/06/28 13:35:36;;;;;;;1.77;0.52;;;;;;;28.91;26.39;102041.94;5030051;28;20496;-70
2022/06/28 13:38:02;;;;;;;4.53;0.70;;;;;;;28.95;25.96;102036.59;5019771;28;20490;-71
2022/06/28 13:40:28;;;;;;;4.30;0.55;;;;;;;28.61;27.59;102035.28;5024889;28;20064;-70
2022/06/28 13:42:54;;;;;;;3.63;0.73;;;;;;;29.40;26.06;102035.28;5015547;28;20464;-70
2022/06/28 13:45:19;;;;;;;2.00;0.50;;;;;;;30.23;24.12;102031.28;5027723;28;20037;-70
2022/06/28 13:47:45;;;;;;;3.08;0.70;;;;;;;28.48;25.81;102044.44;5018242;28;20057;-70
2022/06/28 13:50:11;;;;;;;2.95;0.70;;;;;;;29.30;25.71;102039.19;5029220;28;20045;-69
2022/06/28 13:52:42;;;;;;;4.18;0.77;;;;;;;30.06;25.12;102045.97;5026233;28;20038;-71
2022/06/28 13:55:09;;;;;;;2.30;0.40;;;;;;;29.13;24.61;102033.56;5025286;28;20054;-71
2022/06/28 13:57:35;;;;;;;1.38;0.43;;;;;;;30.13;24.41;102032.41;5025922;28;20029;-70
2022/06/28 14:00:07;;;;;;;3.65;1.33;;;;;;;30.08;25.18;102021.50;5028868;28;20037;-71
2022/06/28 14:02:33;;;;;;;3.88;0.93;;;;;;;30.26;25.30;102017.56;5028736;28;20082;-70
2022/06/28 14:04:59;;;;;;;2.30;0.63;;;;;;;30.45;24.66;102017.22;5027789;28;20037;-71
2022/06/28 14:07:24;;;;;;;2.17;0.50;;;;;;;30.44;24.45;102018.38;5027518;28;20033;-72